Helsinge, Denmark
Current Conditions -  °F | °C
As of 1:50 PM on Wednesday 26 Nov 2014 (Local Time) from EKRK Reporting Station
Overcast Overcast  
Wind Chill:   Ceiling: 1300
Heat Index:   Visibility: 6mi
Dew Point:   Wind: 7mph
Humidity: 87%   Direction: 90°E
Pressure: 30.24"   Gusts: NA
Location:  56.02°N, 12.2°E
Report Text: EKRK 261250Z AUTO 09006KT 9999NDV BKN013/// OVC017///07/05 Q1024
Loading
Personal Weather Stations






























Interactive Weather Map New forecast layout! Learn more

10-Day Weather Forecast

Advertisements
Track Severe Weather on mobile